createdAt,value
2019-01-22T00:00:00.258Z,31.83
2019-01-22T00:02:29.111Z,29.07
2019-01-22T00:04:57.908Z,28.00
2019-01-22T00:07:26.996Z,25.57
2019-01-22T00:09:55.935Z,31.03
2019-01-22T00:12:24.739Z,27.07
2019-01-22T00:14:53.547Z,25.63
2019-01-22T00:17:22.338Z,26.77
2019-01-22T00:19:51.134Z,30.43
2019-01-22T00:22:20.002Z,29.02
2019-01-22T00:24:48.797Z,29.92
2019-01-22T00:27:17.651Z,29.17
2019-01-22T00:29:46.460Z,25.57
2019-01-22T00:32:15.407Z,28.90
2019-01-22T00:34:44.491Z,29.27
2019-01-22T00:37:14.412Z,29.25
2019-01-22T00:39:43.204Z,26.20
2019-01-22T00:42:12.149Z,26.87
2019-01-22T00:44:40.943Z,30.40
2019-01-22T00:47:09.891Z,27.53
2019-01-22T00:49:38.679Z,25.30
2019-01-22T00:52:07.496Z,25.57
2019-01-22T00:54:36.290Z,28.57
2019-01-22T00:57:05.343Z,27.60
2019-01-22T00:59:34.134Z,30.17
2019-01-22T01:02:03.383Z,25.37
2019-01-22T01:04:32.176Z,27.90
2019-01-22T01:07:01.010Z,26.25
2019-01-22T01:09:29.803Z,22.40
2019-01-22T01:11:58.759Z,29.90
2019-01-22T01:14:27.548Z,25.27
2019-01-22T01:16:56.625Z,21.90
2019-01-22T01:19:25.537Z,24.15
2019-01-22T01:21:54.393Z,26.52
2019-01-22T01:24:23.266Z,29.43
2019-01-22T01:26:52.248Z,27.00
2019-01-22T01:29:21.045Z,28.40
2019-01-22T01:31:49.925Z,27.73
2019-01-22T01:34:18.846Z,27.63
2019-01-22T01:36:47.669Z,23.77
2019-01-22T01:39:16.458Z,33.63
2019-01-22T01:41:46.322Z,30.72
2019-01-22T01:44:16.372Z,30.95
2019-01-22T01:46:45.249Z,29.25
2019-01-22T01:49:14.122Z,25.70
2019-01-22T01:51:42.927Z,27.20
2019-01-22T01:54:11.793Z,24.17
2019-01-22T01:56:40.683Z,26.60
2019-01-22T01:59:09.754Z,26.23
2019-01-22T02:01:38.644Z,22.93
2019-01-22T02:04:07.446Z,21.93
2019-01-22T02:06:36.301Z,26.80
2019-01-22T02:09:08.382Z,25.67
2019-01-22T02:11:37.841Z,23.07
2019-01-22T02:14:07.858Z,22.10
2019-01-22T02:16:51.625Z,26.20
2019-01-22T02:19:34.455Z,25.53
2019-01-22T02:22:36.279Z,26.80
2019-01-22T02:25:55.773Z,23.07
2019-01-22T02:29:07.856Z,20.20
2019-01-22T02:32:04.173Z,24.63
2019-01-22T02:34:42.298Z,23.50
2019-01-22T02:37:54.438Z,24.03
2019-01-22T02:40:44.742Z,22.93
2019-01-22T02:44:06.923Z,21.87
2019-01-22T02:46:47.455Z,21.80
2019-01-22T02:49:43.415Z,24.65
2019-01-22T02:53:02.350Z,24.90
2019-01-22T02:56:11.227Z,23.93
2019-01-22T02:58:51.511Z,22.90
2019-01-22T03:01:55.533Z,20.90
2019-01-22T03:04:40.193Z,28.47
2019-01-22T03:07:43.180Z,24.90
2019-01-22T03:11:05.228Z,26.07
2019-01-22T03:14:12.363Z,21.30
2019-01-22T03:17:16.399Z,22.00
2019-01-22T03:20:27.896Z,22.07
2019-01-22T03:23:22.644Z,18.03
2019-01-22T03:26:22.561Z,21.60
2019-01-22T03:29:47.862Z,23.37
2019-01-22T03:32:50.067Z,15.90
2019-01-22T03:36:13.143Z,26.55
2019-01-22T03:38:49.730Z,19.80
2019-01-22T03:41:53.421Z,23.37
2019-01-22T03:45:01.214Z,20.90
2019-01-22T03:48:20.317Z,18.32
2019-01-22T03:51:10.253Z,23.60
2019-01-22T03:54:11.397Z,21.33
2019-01-22T03:56:59.843Z,24.83
2019-01-22T03:59:29.140Z,21.00
2019-01-22T04:01:57.979Z,19.70
2019-01-22T04:04:26.865Z,19.20
2019-01-22T04:06:58.860Z,23.30
2019-01-22T04:09:44.653Z,22.37
2019-01-22T04:12:13.531Z,26.17
2019-01-22T04:14:42.500Z,21.70
2019-01-22T04:17:11.409Z,23.97
2019-01-22T04:19:40.285Z,20.72
2019-01-22T04:22:13.555Z,18.80
2019-01-22T04:25:10.935Z,25.83
2019-01-22T04:28:01.850Z,24.00
2019-01-22T04:31:01.431Z,23.93
2019-01-22T04:34:20.917Z,23.20
2019-01-22T04:37:49.310Z,21.90
2019-01-22T04:40:49.855Z,20.17
2019-01-22T04:43:58.436Z,16.67
2019-01-22T04:46:53.717Z,20.77
2019-01-22T04:50:00.319Z,16.87
2019-01-22T04:52:50.827Z,16.63
2019-01-22T04:55:56.614Z,17.87
2019-01-22T04:58:43.800Z,17.50
2019-01-22T05:01:40.554Z,18.55
2019-01-22T05:04:49.388Z,22.23
2019-01-22T05:08:10.541Z,17.93
2019-01-22T05:10:53.192Z,17.27
2019-01-22T05:13:47.005Z,23.52
2019-01-22T05:16:56.449Z,17.83
2019-01-22T05:19:37.810Z,16.97
2019-01-22T05:22:42.357Z,23.83
2019-01-22T05:25:36.643Z,19.50
2019-01-22T05:28:38.916Z,21.20
2019-01-22T05:31:23.740Z,16.57
2019-01-22T05:34:27.676Z,18.83
2019-01-22T05:37:52.976Z,25.30
2019-01-22T05:40:48.186Z,19.43
2019-01-22T05:43:26.609Z,24.13
2019-01-22T05:46:17.874Z,20.60
2019-01-22T05:49:18.705Z,23.67
2019-01-22T05:51:57.340Z,16.40
2019-01-22T05:54:54.351Z,16.30
2019-01-22T05:57:51.569Z,16.77
2019-01-22T06:00:32.570Z,18.60
2019-01-22T06:03:14.859Z,16.77
2019-01-22T06:05:53.662Z,24.30
2019-01-22T06:09:15.884Z,21.27
2019-01-22T06:12:07.124Z,18.37
2019-01-22T06:15:21.260Z,21.07
2019-01-22T06:18:27.953Z,18.27
2019-01-22T06:21:37.928Z,17.87
2019-01-22T06:24:57.352Z,18.75
2019-01-22T06:27:33.293Z,17.83
2019-01-22T06:30:32.851Z,17.90
2019-01-22T06:33:16.489Z,21.20
2019-01-22T06:36:17.649Z,16.93
2019-01-22T06:39:07.708Z,20.87
2019-01-22T06:42:09.458Z,23.60
2019-01-22T06:45:15.793Z,21.77
2019-01-22T06:47:57.786Z,20.75
2019-01-22T06:50:52.599Z,27.60
2019-01-22T06:53:43.882Z,19.27
2019-01-22T06:56:29.846Z,26.33
2019-01-22T06:59:07.242Z,19.70
2019-01-22T07:01:54.891Z,21.37
2019-01-22T07:04:43.957Z,21.77
2019-01-22T07:07:43.838Z,18.60
2019-01-22T07:10:37.216Z,20.63
2019-01-22T07:13:20.905Z,20.87
2019-01-22T07:16:15.317Z,19.70
2019-01-22T07:19:04.483Z,24.60
2019-01-22T07:22:13.482Z,24.20
2019-01-22T07:25:33.215Z,18.67
2019-01-22T07:28:28.966Z,17.57
2019-01-22T07:31:22.981Z,20.88
2019-01-22T07:34:33.106Z,20.93
2019-01-22T07:37:35.373Z,22.10
2019-01-22T07:40:37.311Z,20.00
2019-01-22T07:43:59.568Z,25.00
2019-01-22T07:47:00.585Z,20.52
2019-01-22T07:50:05.215Z,20.50
2019-01-22T07:53:17.810Z,19.67
2019-01-22T07:56:19.799Z,19.97
2019-01-22T07:59:34.688Z,23.60
2019-01-22T08:02:52.907Z,18.00
2019-01-22T08:05:59.085Z,21.20
2019-01-22T08:08:54.085Z,20.15
2019-01-22T08:12:00.204Z,24.10
2019-01-22T08:14:59.015Z,23.67
2019-01-22T08:17:57.432Z,25.50
2019-01-22T08:20:43.617Z,28.43
2019-01-22T08:23:41.736Z,27.33
2019-01-22T08:26:40.178Z,27.13
2019-01-22T08:30:02.625Z,26.83
2019-01-22T08:33:27.943Z,21.30
2019-01-22T08:36:28.678Z,23.10
2019-01-22T08:39:10.870Z,27.70
2019-01-22T08:42:22.475Z,33.40
2019-01-22T08:45:19.865Z,25.90
2019-01-22T08:48:45.184Z,28.45
2019-01-22T08:52:04.163Z,34.50
2019-01-22T08:55:26.414Z,27.40
2019-01-22T08:58:28.600Z,20.93
2019-01-22T09:01:21.791Z,22.97
2019-01-22T09:04:21.516Z,27.20
2019-01-22T09:07:00.755Z,26.10
2019-01-22T09:10:08.671Z,30.57
2019-01-22T09:13:07.449Z,31.40
2019-01-22T09:16:12.312Z,31.77
2019-01-22T09:19:16.837Z,29.47
2019-01-22T09:22:14.869Z,29.50
2019-01-22T09:24:51.891Z,27.70
2019-01-22T09:27:55.579Z,30.30
2019-01-22T09:30:59.117Z,28.57
2019-01-22T09:33:56.026Z,34.27
2019-01-22T09:37:11.486Z,24.40
2019-01-22T09:39:40.491Z,29.83
2019-01-22T09:42:09.364Z,29.03
2019-01-22T09:44:38.157Z,26.80
2019-01-22T09:47:07.124Z,28.30
2019-01-22T09:49:36.185Z,26.80
2019-01-22T09:52:05.442Z,30.93
2019-01-22T09:54:34.777Z,30.43
2019-01-22T09:57:03.754Z,30.35
2019-01-22T09:59:32.563Z,26.50
2019-01-22T10:02:01.588Z,32.60
2019-01-22T10:04:30.450Z,30.33
2019-01-22T10:06:59.492Z,26.33
2019-01-22T10:09:28.489Z,27.87
2019-01-22T10:11:58.349Z,32.90
2019-01-22T10:14:27.430Z,29.40
2019-01-22T10:16:56.361Z,28.32
2019-01-22T10:19:25.421Z,30.60
2019-01-22T10:21:54.342Z,33.03
2019-01-22T10:24:23.210Z,32.57
2019-01-22T10:26:52.090Z,27.67
2019-01-22T10:29:20.971Z,27.15
2019-01-22T10:31:50.474Z,30.47
2019-01-22T10:34:19.422Z,28.07
2019-01-22T10:36:48.307Z,31.30
2019-01-22T10:39:17.899Z,29.40
2019-01-22T10:41:46.916Z,28.77
2019-01-22T10:44:15.841Z,30.97
2019-01-22T10:46:44.652Z,30.43
2019-01-22T10:49:15.180Z,33.87
2019-01-22T10:51:44.021Z,27.50
2019-01-22T10:54:12.859Z,27.75
2019-01-22T10:56:41.813Z,29.00
2019-01-22T10:59:10.766Z,26.87
2019-01-22T11:01:39.648Z,28.60
2019-01-22T11:04:08.588Z,26.40
2019-01-22T11:06:37.736Z,28.42
2019-01-22T11:09:07.879Z,27.02
2019-01-22T11:11:36.725Z,28.92
2019-01-22T11:14:05.772Z,29.60
2019-01-22T11:16:34.578Z,24.57
2019-01-22T11:19:03.532Z,28.13
2019-01-22T11:21:32.419Z,25.80
2019-01-22T11:24:01.435Z,24.87
2019-01-22T11:26:30.379Z,25.40
2019-01-22T11:28:59.260Z,23.07
2019-01-22T11:31:28.045Z,25.40
2019-01-22T11:33:56.840Z,25.30
2019-01-22T11:36:25.643Z,27.07
2019-01-22T11:38:54.512Z,23.90
2019-01-22T11:41:23.443Z,28.10
2019-01-22T11:43:52.239Z,24.00
2019-01-22T11:46:21.191Z,26.90
2019-01-22T11:48:50.066Z,30.20
2019-01-22T11:51:18.860Z,27.43
2019-01-22T11:53:47.657Z,27.37
2019-01-22T11:56:16.779Z,28.80
2019-01-22T11:58:45.591Z,26.30
2019-01-22T12:01:14.543Z,25.77
2019-01-22T12:03:43.455Z,27.60
2019-01-22T12:06:12.317Z,30.10
2019-01-22T12:08:41.202Z,24.60
2019-01-22T12:11:10.784Z,25.70
2019-01-22T12:13:39.589Z,25.10
2019-01-22T12:16:08.393Z,24.90
2019-01-22T12:18:37.265Z,29.20
2019-01-22T12:21:06.211Z,28.87
2019-01-22T12:23:35.090Z,27.53
2019-01-22T12:26:04.073Z,23.95
2019-01-22T12:28:33.017Z,27.32
2019-01-22T12:31:01.842Z,26.20
2019-01-22T12:33:30.653Z,28.57
2019-01-22T12:35:59.465Z,28.50
2019-01-22T12:38:28.290Z,25.95
2019-01-22T12:40:57.086Z,27.27
2019-01-22T12:43:25.876Z,26.47
2019-01-22T12:45:54.739Z,26.13
2019-01-22T12:48:23.532Z,26.63
2019-01-22T12:50:52.515Z,26.27
2019-01-22T12:53:21.410Z,26.17
2019-01-22T12:55:50.273Z,27.37
2019-01-22T12:58:19.079Z,23.67
2019-01-22T13:00:48.037Z,27.47
2019-01-22T13:03:16.903Z,25.62
2019-01-22T13:05:52.035Z,23.40
2019-01-22T13:08:21.021Z,26.48
2019-01-22T13:10:50.046Z,22.00
2019-01-22T13:13:18.954Z,26.70
2019-01-22T13:15:47.933Z,21.50
2019-01-22T13:18:16.944Z,22.03
2019-01-22T13:20:45.877Z,23.20
2019-01-22T13:23:14.967Z,19.23
2019-01-22T13:25:43.822Z,19.13
2019-01-22T13:28:12.795Z,22.73
2019-01-22T13:30:42.721Z,21.68
2019-01-22T13:33:11.783Z,19.92
2019-01-22T13:35:40.792Z,20.25
2019-01-22T13:38:09.599Z,21.65
2019-01-22T13:40:38.476Z,19.50
2019-01-22T13:43:07.691Z,21.43
2019-01-22T13:45:36.987Z,23.80
2019-01-22T13:48:07.606Z,20.50
2019-01-22T13:50:36.653Z,20.10
2019-01-22T13:53:05.922Z,17.40
2019-01-22T13:55:36.572Z,14.97
2019-01-22T13:58:05.931Z,18.97
2019-01-22T14:00:34.955Z,16.50
2019-01-22T14:03:04.331Z,14.73
2019-01-22T14:05:33.300Z,15.83
2019-01-22T14:08:02.184Z,15.47
2019-01-22T14:10:30.981Z,12.43
2019-01-22T14:12:59.954Z,13.63
2019-01-22T14:15:31.295Z,13.58
2019-01-22T14:18:00.247Z,14.80
2019-01-22T14:20:29.169Z,12.73
2019-01-22T14:22:58.035Z,15.07
2019-01-22T14:25:26.926Z,13.35
2019-01-22T14:27:55.811Z,13.33
2019-01-22T14:30:31.030Z,14.43
2019-01-22T14:32:59.928Z,14.40
2019-01-22T14:35:28.938Z,13.77
2019-01-22T14:37:57.907Z,13.13
2019-01-22T14:40:26.888Z,11.80
2019-01-22T14:42:56.106Z,11.20
2019-01-22T14:45:25.059Z,9.60
2019-01-22T14:47:54.003Z,10.23
2019-01-22T14:50:24.840Z,10.90
2019-01-22T14:52:53.716Z,10.45
2019-01-22T14:55:22.637Z,12.80
2019-01-22T14:57:51.502Z,11.80
2019-01-22T15:00:22.470Z,9.40
2019-01-22T15:02:51.396Z,8.57
2019-01-22T15:05:20.336Z,11.37
2019-01-22T15:07:49.313Z,8.93
2019-01-22T15:10:18.493Z,8.13
2019-01-22T15:12:48.835Z,9.60
2019-01-22T15:15:18.329Z,10.50
2019-01-22T15:17:47.265Z,8.77
2019-01-22T15:20:18.710Z,8.50
2019-01-22T15:22:47.660Z,8.18
2019-01-22T15:25:16.691Z,8.55
2019-01-22T15:27:45.873Z,9.05
2019-01-22T15:30:16.997Z,8.88
2019-01-22T15:32:46.096Z,8.90
2019-01-22T15:35:16.054Z,11.30
2019-01-22T15:37:44.924Z,9.70
2019-01-22T15:40:17.194Z,9.63
2019-01-22T15:42:46.242Z,9.80
2019-01-22T15:45:15.188Z,11.00
2019-01-22T15:47:44.081Z,10.43
2019-01-22T15:50:13.938Z,10.47
2019-01-22T15:52:42.881Z,8.60
2019-01-22T15:55:16.297Z,9.80
2019-01-22T15:57:45.087Z,9.57
2019-01-22T16:00:16.621Z,10.00
2019-01-22T16:02:45.507Z,12.30
2019-01-22T16:05:14.543Z,10.00
2019-01-22T16:07:43.368Z,9.83
2019-01-22T16:10:12.715Z,8.77
2019-01-22T16:12:41.512Z,8.50
2019-01-22T16:15:13.007Z,10.07
2019-01-22T16:17:41.959Z,9.43
2019-01-22T16:20:16.539Z,10.97
2019-01-22T16:22:45.352Z,10.43
2019-01-22T16:25:14.832Z,11.03
2019-01-22T16:27:43.721Z,10.57
2019-01-22T16:30:15.237Z,11.18
2019-01-22T16:32:44.115Z,11.47
2019-01-22T16:35:14.860Z,13.20
2019-01-22T16:37:44.008Z,10.83
2019-01-22T16:40:13.603Z,11.93
2019-01-22T16:42:42.602Z,11.70
2019-01-22T16:45:18.295Z,10.67
2019-01-22T16:47:47.296Z,12.30
2019-01-22T16:50:16.551Z,12.87
2019-01-22T16:52:45.509Z,12.00
2019-01-22T16:55:17.667Z,11.80
2019-01-22T16:57:46.466Z,13.80
2019-01-22T17:00:22.086Z,15.60
2019-01-22T17:02:51.088Z,15.43
2019-01-22T17:05:20.351Z,11.40
2019-01-22T17:07:49.469Z,12.60
2019-01-22T17:10:19.347Z,12.35
2019-01-22T17:12:49.192Z,14.15
2019-01-22T17:15:19.297Z,11.03
2019-01-22T17:17:49.300Z,13.68
2019-01-22T17:20:27.759Z,11.53
2019-01-22T17:23:02.690Z,11.30
2019-01-22T17:25:31.703Z,11.40
2019-01-22T17:28:00.723Z,11.43
2019-01-22T17:30:31.029Z,11.90
2019-01-22T17:33:19.549Z,12.67
2019-01-22T17:35:49.975Z,12.77
2019-01-22T17:38:20.903Z,12.18
2019-01-22T17:40:50.104Z,12.73
2019-01-22T17:43:19.982Z,13.28
2019-01-22T17:45:48.769Z,13.37
2019-01-22T17:48:17.670Z,14.00
2019-01-22T17:50:46.757Z,13.93
2019-01-22T17:53:15.601Z,13.17
2019-01-22T17:55:44.465Z,11.30
2019-01-22T17:58:13.337Z,13.07
2019-01-22T18:00:42.629Z,14.70
2019-01-22T18:03:11.577Z,10.82
2019-01-22T18:05:40.445Z,13.90
2019-01-22T18:08:09.834Z,13.77
2019-01-22T18:10:38.919Z,15.17
2019-01-22T18:13:07.870Z,14.83
2019-01-22T18:15:36.789Z,15.53
2019-01-22T18:18:06.244Z,12.10
2019-01-22T18:20:35.098Z,18.00
2019-01-22T18:23:03.970Z,17.13
2019-01-22T18:25:32.925Z,17.83
2019-01-22T18:28:01.912Z,15.17
2019-01-22T18:30:30.795Z,16.20
2019-01-22T18:32:59.656Z,15.60
2019-01-22T18:35:42.675Z,16.05
2019-01-22T18:38:13.870Z,14.50
2019-01-22T18:40:42.698Z,16.75
2019-01-22T18:43:11.602Z,14.60
2019-01-22T18:45:40.539Z,15.47
2019-01-22T18:48:09.426Z,16.73
2019-01-22T18:50:38.305Z,12.23
2019-01-22T18:53:07.181Z,14.25
2019-01-22T18:55:36.090Z,16.80
2019-01-22T18:58:05.189Z,15.03
2019-01-22T19:00:34.076Z,13.23
2019-01-22T19:03:03.063Z,15.20
2019-01-22T19:05:32.051Z,16.63
2019-01-22T19:08:00.898Z,14.27
2019-01-22T19:10:29.830Z,14.30
2019-01-22T19:12:58.786Z,15.67
2019-01-22T19:15:27.757Z,14.47
2019-01-22T19:17:56.724Z,15.53
2019-01-22T19:20:25.560Z,12.27
2019-01-22T19:22:54.518Z,13.60
2019-01-22T19:25:25.507Z,14.63
2019-01-22T19:27:54.367Z,15.10
2019-01-22T19:30:25.809Z,14.65
2019-01-22T19:32:54.709Z,13.83
2019-01-22T19:35:24.013Z,17.67
2019-01-22T19:37:52.878Z,16.43
2019-01-22T19:40:21.879Z,14.50
2019-01-22T19:42:50.880Z,15.43
2019-01-22T19:45:23.109Z,17.97
2019-01-22T19:47:51.976Z,14.00
2019-01-22T19:50:20.961Z,14.70
2019-01-22T19:52:49.860Z,10.63
2019-01-22T19:55:18.856Z,10.40
2019-01-22T19:57:47.752Z,12.03
2019-01-22T20:00:22.370Z,13.90
2019-01-22T20:02:51.250Z,16.60
2019-01-22T20:05:20.711Z,12.17
2019-01-22T20:07:49.871Z,16.00
2019-01-22T20:10:18.861Z,14.97
2019-01-22T20:12:47.728Z,13.17
2019-01-22T20:15:16.785Z,12.53
2019-01-22T20:17:45.751Z,14.00
2019-01-22T20:20:16.799Z,17.17
2019-01-22T20:22:45.791Z,15.47
2019-01-22T20:25:15.471Z,17.77
2019-01-22T20:27:48.360Z,15.27
2019-01-22T20:30:32.545Z,16.20
2019-01-22T20:33:01.425Z,15.23
2019-01-22T20:35:30.333Z,14.93
2019-01-22T20:37:59.285Z,17.13
2019-01-22T20:40:28.245Z,13.20
2019-01-22T20:42:57.178Z,16.73
2019-01-22T20:45:27.846Z,16.37
2019-01-22T20:47:56.707Z,13.80
2019-01-22T20:50:25.793Z,17.45
2019-01-22T20:52:54.791Z,13.83
2019-01-22T20:55:23.805Z,15.60
2019-01-22T20:57:54.959Z,14.97
2019-01-22T21:00:24.074Z,15.57
2019-01-22T21:02:53.469Z,13.62
2019-01-22T21:05:24.263Z,16.40
2019-01-22T21:07:53.439Z,14.47
2019-01-22T21:10:30.570Z,12.13
2019-01-22T21:12:59.512Z,12.70
2019-01-22T21:15:28.565Z,13.20
2019-01-22T21:17:57.804Z,14.43
2019-01-22T21:20:26.751Z,12.53
2019-01-22T21:22:55.610Z,14.00
2019-01-22T21:25:24.737Z,13.93
2019-01-22T21:27:53.742Z,15.80
2019-01-22T21:30:33.863Z,16.10
2019-01-22T21:33:03.283Z,17.03
2019-01-22T21:35:32.305Z,17.17
2019-01-22T21:38:01.169Z,13.23
2019-01-22T21:40:30.040Z,13.53
2019-01-22T21:42:59.002Z,14.27
2019-01-22T21:45:27.913Z,13.88
2019-01-22T21:47:56.759Z,14.90
2019-01-22T21:50:25.814Z,13.40
2019-01-22T21:52:54.777Z,12.47
2019-01-22T21:55:23.741Z,14.00
2019-01-22T21:57:52.684Z,13.13
2019-01-22T22:02:40.234Z,16.57
2019-01-22T22:05:10.841Z,16.80
2019-01-22T22:07:39.787Z,14.18
2019-01-22T22:10:11.884Z,15.83
2019-01-22T22:12:40.932Z,14.77
2019-01-22T22:15:11.138Z,13.80
2019-01-22T22:17:39.942Z,13.37
2019-01-22T22:20:11.390Z,16.10
2019-01-22T22:22:40.347Z,12.63
2019-01-22T22:25:11.033Z,14.37
2019-01-22T22:27:39.909Z,14.35
2019-01-22T22:30:21.070Z,13.00
2019-01-22T22:32:49.989Z,11.43
2019-01-22T22:35:18.919Z,14.18
2019-01-22T22:37:47.815Z,13.50
2019-01-22T22:40:17.043Z,12.40
2019-01-22T22:42:45.922Z,12.77
2019-01-22T22:45:16.602Z,13.83
2019-01-22T22:47:45.536Z,15.40
2019-01-22T22:50:17.672Z,15.70
2019-01-22T22:52:46.499Z,12.77
2019-01-22T22:55:15.555Z,16.00
2019-01-22T22:57:44.366Z,14.83
2019-01-22T23:00:43.060Z,15.83
2019-01-22T23:03:12.663Z,13.07
2019-01-22T23:05:41.609Z,13.37
2019-01-22T23:08:10.575Z,13.23
2019-01-22T23:10:39.450Z,14.05
2019-01-22T23:13:08.328Z,15.97
2019-01-22T23:15:37.275Z,16.17
2019-01-22T23:18:06.424Z,15.80
2019-01-22T23:20:35.215Z,16.30
2019-01-22T23:23:04.383Z,14.10
2019-01-22T23:25:33.300Z,13.90
2019-01-22T23:28:02.339Z,14.33
2019-01-22T23:30:31.397Z,12.55
2019-01-22T23:33:00.272Z,15.10
2019-01-22T23:35:29.144Z,11.70
2019-01-22T23:37:57.948Z,14.93
2019-01-22T23:40:26.868Z,14.43
2019-01-22T23:42:55.667Z,12.83
2019-01-22T23:45:24.565Z,13.90
2019-01-22T23:47:53.470Z,13.07
2019-01-22T23:50:22.328Z,14.13
2019-01-22T23:52:51.128Z,15.23
2019-01-22T23:55:19.913Z,11.50
2019-01-22T23:57:49.195Z,15.27
